createdAt,value
2023-04-01T00:01:22.735Z,47.99
2023-04-01T00:03:28.633Z,48.28
2023-04-01T00:05:33.760Z,48.12
2023-04-01T00:07:38.846Z,48.27
2023-04-01T00:09:43.649Z,48.22
2023-04-01T00:11:48.430Z,48.12
2023-04-01T00:13:53.276Z,48.43
2023-04-01T00:16:00.120Z,48.25
2023-04-01T00:18:08.599Z,48.15
2023-04-01T00:20:15.494Z,48.18
2023-04-01T00:22:20.211Z,48.52
2023-04-01T00:24:25.024Z,48.52
2023-04-01T00:26:29.961Z,48.35
2023-04-01T00:28:35.010Z,48.54
2023-04-01T00:30:40.414Z,48.51
2023-04-01T00:32:45.343Z,48.53
2023-04-01T00:34:54.296Z,48.57
2023-04-01T00:36:59.096Z,48.39
2023-04-01T00:39:03.846Z,48.43
2023-04-01T00:41:09.559Z,48.30
2023-04-01T00:43:19.054Z,48.49
2023-04-01T00:45:32.429Z,48.41
2023-04-01T00:47:37.137Z,48.73
2023-04-01T00:49:44.503Z,48.62
2023-04-01T00:51:55.782Z,48.86
2023-04-01T00:54:04.959Z,48.79
2023-04-01T00:56:14.959Z,48.74
2023-04-01T00:58:22.516Z,48.81
2023-04-01T01:00:27.637Z,48.56
2023-04-01T01:02:32.747Z,48.98
2023-04-01T01:04:38.996Z,48.71
2023-04-01T01:06:55.223Z,48.79
2023-04-01T01:09:19.258Z,48.76
2023-04-01T01:11:37.076Z,48.83
2023-04-01T01:13:56.056Z,48.98
2023-04-01T01:16:04.652Z,49.33
2023-04-01T01:18:16.249Z,49.31
2023-04-01T01:20:51.098Z,49.54
2023-04-01T01:23:25.771Z,49.31
2023-04-01T01:25:43.012Z,49.36
2023-04-01T01:27:58.468Z,49.73
2023-04-01T01:30:23.788Z,49.71
2023-04-01T01:32:43.867Z,49.66
2023-04-01T01:34:57.761Z,49.68
2023-04-01T01:37:09.483Z,49.61
2023-04-01T01:39:17.482Z,49.85
2023-04-01T01:41:24.012Z,49.84
2023-04-01T01:43:33.748Z,49.58
2023-04-01T01:45:44.483Z,49.74
2023-04-01T01:47:50.445Z,49.85
2023-04-01T01:49:57.133Z,49.53
2023-04-01T01:52:02.278Z,49.73
2023-04-01T01:54:09.623Z,49.51
2023-04-01T01:56:15.356Z,49.72
2023-04-01T01:58:26.163Z,49.61
2023-04-01T02:00:32.015Z,49.48
2023-04-01T02:02:39.543Z,49.76
2023-04-01T02:04:48.431Z,49.67
2023-04-01T02:06:59.972Z,49.82
2023-04-01T02:09:07.886Z,49.90
2023-04-01T02:11:17.036Z,49.69
2023-04-01T02:13:31.131Z,49.94
2023-04-01T02:15:41.121Z,49.70
2023-04-01T02:17:48.470Z,49.81
2023-04-01T02:19:56.524Z,49.66
2023-04-01T02:22:06.508Z,50.00
2023-04-01T02:24:15.600Z,49.90
2023-04-01T02:26:24.861Z,50.07
2023-04-01T02:28:30.622Z,49.75
2023-04-01T02:30:38.784Z,50.01
2023-04-01T02:32:44.105Z,49.83
2023-04-01T02:34:49.670Z,50.06
2023-04-01T02:36:55.899Z,49.75
2023-04-01T02:39:04.128Z,50.19
2023-04-01T02:41:09.120Z,49.91
2023-04-01T02:43:17.432Z,50.09
2023-04-01T02:45:22.731Z,50.13
2023-04-01T02:47:27.698Z,50.10
2023-04-01T02:49:32.492Z,49.76
2023-04-01T02:51:37.474Z,50.12
2023-04-01T02:53:42.253Z,50.12
2023-04-01T02:55:47.161Z,50.23
2023-04-01T02:57:51.919Z,50.00
2023-04-01T02:59:59.260Z,50.15
2023-04-01T03:02:04.047Z,50.25
2023-04-01T03:04:09.209Z,50.18
2023-04-01T03:06:16.542Z,50.25
2023-04-01T03:08:21.456Z,50.04
2023-04-01T03:10:26.318Z,50.07
2023-04-01T03:12:31.140Z,50.00
2023-04-01T03:14:35.954Z,50.14
2023-04-01T03:16:43.402Z,50.00
2023-04-01T03:18:50.592Z,50.10
2023-04-01T03:20:56.246Z,50.09
2023-04-01T03:23:01.054Z,50.02
2023-04-01T03:25:06.529Z,50.11
2023-04-01T03:27:11.262Z,50.04
2023-04-01T03:29:17.006Z,50.43
2023-04-01T03:31:23.909Z,50.13
2023-04-01T03:33:35.232Z,50.38
2023-04-01T03:35:39.967Z,50.39
2023-04-01T03:37:44.804Z,50.11
2023-04-01T03:39:49.566Z,50.42
2023-04-01T03:41:54.429Z,50.40
2023-04-01T03:43:59.271Z,50.38
2023-04-01T03:46:04.278Z,50.35
2023-04-01T03:48:09.564Z,50.34
2023-04-01T03:50:17.202Z,50.49
2023-04-01T03:52:22.020Z,50.65
2023-04-01T03:54:27.023Z,50.62
2023-04-01T03:56:31.838Z,50.49
2023-04-01T03:58:36.654Z,50.47
2023-04-01T04:00:42.856Z,50.63
2023-04-01T04:02:48.784Z,50.64
2023-04-01T04:04:59.172Z,50.60
2023-04-01T04:07:09.060Z,50.58
2023-04-01T04:09:34.429Z,50.75
2023-04-01T04:11:39.508Z,50.68
2023-04-01T04:13:44.761Z,50.69
2023-04-01T04:15:49.943Z,50.54
2023-04-01T04:17:54.784Z,50.62
2023-04-01T04:20:00.154Z,50.89
2023-04-01T04:22:05.227Z,50.79
2023-04-01T04:24:13.297Z,50.69
2023-04-01T04:26:38.287Z,50.63
2023-04-01T04:28:43.574Z,50.96
2023-04-01T04:30:48.409Z,50.62
2023-04-01T04:32:53.235Z,50.87
2023-04-01T04:34:58.040Z,50.99
2023-04-01T04:37:02.933Z,50.90
2023-04-01T04:39:14.664Z,50.71
2023-04-01T04:41:23.419Z,50.73
2023-04-01T04:43:29.680Z,50.92
2023-04-01T04:45:35.674Z,50.86
2023-04-01T04:47:41.902Z,50.89
2023-04-01T04:49:46.812Z,50.75
2023-04-01T04:51:51.608Z,50.82
2023-04-01T04:53:58.655Z,50.86
2023-04-01T04:56:21.719Z,50.71
2023-04-01T04:58:38.229Z,51.06
2023-04-01T05:00:43.606Z,51.15
2023-04-01T05:02:56.969Z,51.04
2023-04-01T05:05:02.010Z,50.94
2023-04-01T05:07:07.100Z,51.02
2023-04-01T05:09:12.483Z,51.41
2023-04-01T05:11:23.066Z,51.26
2023-04-01T05:13:29.695Z,51.46
2023-04-01T05:15:35.341Z,51.26
2023-04-01T05:17:40.574Z,51.43
2023-04-01T05:19:45.529Z,51.54
2023-04-01T05:21:50.376Z,51.47
2023-04-01T05:23:55.230Z,51.32
2023-04-01T05:26:00.302Z,51.30
2023-04-01T05:28:08.566Z,51.49
2023-04-01T05:30:14.932Z,51.21
2023-04-01T05:32:32.304Z,51.40
2023-04-01T05:34:37.240Z,51.54
2023-04-01T05:36:42.878Z,51.33
2023-04-01T05:38:49.031Z,51.52
2023-04-01T05:41:02.681Z,51.65
2023-04-01T05:43:11.525Z,51.58
2023-04-01T05:45:16.966Z,51.37
2023-04-01T05:47:54.298Z,51.54
2023-04-01T05:49:59.623Z,51.38
2023-04-01T05:52:04.754Z,51.21
2023-04-01T05:54:12.652Z,51.66
2023-04-01T05:56:18.451Z,51.49
2023-04-01T05:58:29.752Z,51.52
2023-04-01T06:00:34.590Z,51.11
2023-04-01T06:02:40.298Z,51.30
2023-04-01T06:04:46.215Z,51.14
2023-04-01T06:06:52.613Z,51.37
2023-04-01T06:08:59.399Z,51.44
2023-04-01T06:11:17.475Z,50.95
2023-04-01T06:13:40.108Z,51.29
2023-04-01T06:15:52.588Z,51.06
2023-04-01T06:18:14.993Z,50.90
2023-04-01T06:20:29.239Z,50.99
2023-04-01T06:23:01.282Z,50.98
2023-04-01T06:25:29.761Z,51.03
2023-04-01T06:27:48.183Z,50.93
2023-04-01T06:30:04.801Z,50.74
2023-04-01T06:32:46.774Z,51.06
2023-04-01T06:35:07.772Z,50.71
2023-04-01T06:37:40.238Z,50.93
2023-04-01T06:40:08.758Z,50.86
2023-04-01T06:42:32.231Z,50.67
2023-04-01T06:44:52.946Z,50.86
2023-04-01T06:47:30.399Z,50.87
2023-04-01T06:50:03.433Z,50.81
2023-04-01T06:52:34.976Z,50.36
2023-04-01T06:55:25.768Z,50.25
2023-04-01T06:57:53.254Z,50.29
2023-04-01T07:00:01.237Z,50.28
2023-04-01T07:02:22.656Z,50.10
2023-04-01T07:04:35.274Z,50.26
2023-04-01T07:07:04.052Z,50.43
2023-04-01T07:09:20.534Z,50.22
2023-04-01T07:11:44.708Z,50.01
2023-04-01T07:14:22.460Z,50.05
2023-04-01T07:16:34.628Z,50.22
2023-04-01T07:18:46.125Z,50.25
2023-04-01T07:20:55.693Z,49.99
2023-04-01T07:23:04.653Z,49.79
2023-04-01T07:25:33.741Z,49.89
2023-04-01T07:28:17.654Z,49.58
2023-04-01T07:30:28.875Z,49.38
2023-04-01T07:32:44.929Z,49.44
2023-04-01T07:35:21.465Z,49.40
2023-04-01T07:37:34.901Z,49.04
2023-04-01T07:39:49.673Z,49.04
2023-04-01T07:42:25.753Z,48.96
2023-04-01T07:44:42.521Z,48.95
2023-04-01T07:47:03.567Z,48.67
2023-04-01T07:49:15.662Z,48.57
2023-04-01T07:51:28.838Z,48.86
2023-04-01T07:53:42.333Z,48.36
2023-04-01T07:55:55.061Z,48.35
2023-04-01T07:58:06.682Z,48.25
2023-04-01T08:00:22.875Z,48.27
2023-04-01T08:02:53.148Z,48.22
2023-04-01T08:05:08.446Z,48.22
2023-04-01T08:07:20.273Z,48.06
2023-04-01T08:09:53.494Z,47.47
2023-04-01T08:12:28.731Z,47.74
2023-04-01T08:15:04.178Z,47.70
2023-04-01T08:17:36.005Z,47.32
2023-04-01T08:19:53.222Z,47.80
2023-04-01T08:22:01.577Z,47.62
2023-04-01T08:24:21.488Z,47.58
2023-04-01T08:26:38.252Z,47.35
2023-04-01T08:28:48.425Z,47.64
2023-04-01T08:30:56.384Z,47.33
2023-04-01T08:33:09.609Z,47.21
2023-04-01T08:35:32.946Z,47.42
2023-04-01T08:37:43.965Z,47.30
2023-04-01T08:39:58.014Z,46.96
2023-04-01T08:42:29.296Z,46.92
2023-04-01T08:45:19.563Z,47.11
2023-04-01T08:47:52.332Z,47.08
2023-04-01T08:50:35.676Z,46.80
2023-04-01T08:53:02.649Z,46.88
2023-04-01T08:55:40.808Z,46.77
2023-04-01T08:58:04.141Z,46.22
2023-04-01T09:00:34.284Z,46.30
2023-04-01T09:03:38.269Z,45.99
2023-04-01T09:06:05.752Z,45.79
2023-04-01T09:08:32.456Z,45.83
2023-04-01T09:10:52.819Z,45.78
2023-04-01T09:14:05.690Z,45.98
2023-04-01T09:16:28.756Z,46.05
2023-04-01T09:19:14.401Z,45.90
2023-04-01T09:21:54.322Z,45.98
2023-04-01T09:24:29.579Z,46.20
2023-04-01T09:26:52.195Z,46.34
2023-04-01T09:29:09.883Z,45.77
2023-04-01T09:31:30.841Z,45.64
2023-04-01T09:34:40.441Z,45.49
2023-04-01T09:36:49.655Z,45.55
2023-04-01T09:39:01.149Z,44.76
2023-04-01T09:41:19.863Z,44.47
2023-04-01T09:44:08.240Z,44.61
2023-04-01T09:46:38.403Z,44.30
2023-04-01T09:49:21.577Z,44.75
2023-04-01T09:51:36.214Z,44.62
2023-04-01T09:53:57.678Z,44.29
2023-04-01T09:56:27.156Z,44.59
2023-04-01T09:58:58.893Z,44.62
2023-04-01T10:01:56.959Z,44.68
2023-04-01T10:04:28.024Z,44.49
2023-04-01T10:07:03.272Z,44.33
2023-04-01T10:09:41.082Z,44.65
2023-04-01T10:12:20.895Z,44.81
2023-04-01T10:14:39.292Z,44.87
2023-04-01T10:17:20.253Z,44.79
2023-04-01T10:19:43.366Z,45.00
2023-04-01T10:22:18.103Z,44.97
2023-04-01T10:24:57.588Z,45.05
2023-04-01T10:27:27.477Z,44.84
2023-04-01T10:30:47.436Z,44.68
2023-04-01T10:33:32.632Z,45.13
2023-04-01T10:36:17.172Z,44.88
2023-04-01T10:38:51.571Z,44.91
2023-04-01T10:41:35.024Z,45.10
2023-04-01T10:44:29.388Z,44.80
2023-04-01T10:47:06.076Z,44.86
2023-04-01T10:49:41.101Z,44.75
2023-04-01T10:52:20.349Z,44.78
2023-04-01T10:54:50.139Z,45.13
2023-04-01T10:57:39.953Z,44.84
2023-04-01T11:00:27.535Z,45.07
2023-04-01T11:03:32.543Z,45.67
2023-04-01T11:06:49.855Z,45.40
2023-04-01T11:09:44.255Z,45.87
2023-04-01T11:12:22.066Z,46.22
2023-04-01T11:14:53.707Z,46.00
2023-04-01T11:17:23.660Z,46.44
2023-04-01T11:20:11.367Z,46.16
2023-04-01T11:22:36.752Z,46.01
2023-04-01T11:25:04.493Z,46.67
2023-04-01T11:27:39.799Z,46.61
2023-04-01T11:30:00.341Z,46.56
2023-04-01T11:32:24.279Z,46.75
2023-04-01T11:34:46.911Z,46.48
2023-04-01T11:37:05.322Z,46.84
2023-04-01T11:39:24.971Z,47.20
2023-04-01T11:42:20.084Z,47.11
2023-04-01T11:45:05.466Z,47.26
2023-04-01T11:47:29.690Z,47.17
2023-04-01T11:49:47.806Z,47.11
2023-04-01T11:52:18.653Z,47.32
2023-04-01T11:54:55.517Z,47.61
2023-04-01T11:57:17.223Z,47.69
2023-04-01T11:59:45.278Z,47.62
2023-04-01T12:02:03.839Z,47.64
2023-04-01T12:04:36.504Z,47.84
2023-04-01T12:06:49.115Z,47.99
2023-04-01T12:09:05.191Z,48.13
2023-04-01T12:11:18.794Z,48.53
2023-04-01T12:13:36.369Z,48.64
2023-04-01T12:15:52.899Z,48.69
2023-04-01T12:18:06.138Z,48.76
2023-04-01T12:20:22.847Z,48.69
2023-04-01T12:22:39.207Z,49.25
2023-04-01T12:24:51.819Z,49.10
2023-04-01T12:27:09.800Z,49.39
2023-04-01T12:29:53.618Z,49.22
2023-04-01T12:32:08.273Z,49.43
2023-04-01T12:34:51.336Z,49.79
2023-04-01T12:37:08.207Z,49.97
2023-04-01T12:39:34.128Z,50.24
2023-04-01T12:41:47.547Z,50.63
2023-04-01T12:44:28.056Z,50.87
2023-04-01T12:46:53.276Z,50.99
2023-04-01T12:49:23.232Z,50.88
2023-04-01T12:51:49.608Z,51.37
2023-04-01T12:54:33.602Z,51.46
2023-04-01T12:56:54.134Z,51.20
2023-04-01T12:59:19.804Z,51.04
2023-04-01T13:01:42.236Z,51.52
2023-04-01T13:04:25.791Z,51.49
2023-04-01T13:06:50.212Z,51.70
2023-04-01T13:09:07.555Z,51.45
2023-04-01T13:11:25.085Z,51.64
2023-04-01T13:13:49.431Z,51.89
2023-04-01T13:15:58.771Z,51.54
2023-04-01T13:18:21.651Z,51.61
2023-04-01T13:20:39.771Z,51.83
2023-04-01T13:23:01.683Z,52.11
2023-04-01T13:25:17.986Z,52.02
2023-04-01T13:27:29.409Z,51.94
2023-04-01T13:29:39.382Z,52.16
2023-04-01T13:31:56.301Z,52.22
2023-04-01T13:34:20.897Z,52.12
2023-04-01T13:36:33.431Z,52.42
2023-04-01T13:39:00.014Z,52.34
2023-04-01T13:41:13.789Z,52.80
2023-04-01T13:43:25.820Z,52.71
2023-04-01T13:45:37.245Z,52.84
2023-04-01T13:48:08.851Z,52.79
2023-04-01T13:50:44.633Z,52.68
2023-04-01T13:53:12.988Z,52.82
2023-04-01T13:55:53.564Z,52.61
2023-04-01T13:58:21.507Z,52.56
2023-04-01T14:00:42.716Z,52.36
2023-04-01T14:03:00.198Z,52.41
2023-04-01T14:05:24.386Z,52.41
2023-04-01T14:07:54.059Z,52.78
2023-04-01T14:10:11.030Z,52.68
2023-04-01T14:12:28.399Z,52.40
2023-04-01T14:14:51.297Z,52.63
2023-04-01T14:17:19.622Z,52.43
2023-04-01T14:19:38.834Z,52.49
2023-04-01T14:21:51.863Z,52.55
2023-04-01T14:24:26.652Z,52.59
2023-04-01T14:26:47.965Z,52.35
2023-04-01T14:29:03.366Z,52.35
2023-04-01T14:31:38.555Z,52.20
2023-04-01T14:33:50.277Z,52.36
2023-04-01T14:36:19.967Z,52.72
2023-04-01T14:38:51.898Z,52.78
2023-04-01T14:41:07.188Z,52.57
2023-04-01T14:43:35.484Z,52.49
2023-04-01T14:46:09.675Z,52.63
2023-04-01T14:48:27.403Z,52.74
2023-04-01T14:50:34.786Z,52.84
2023-04-01T14:52:43.344Z,52.77
2023-04-01T14:54:50.597Z,53.01
2023-04-01T14:57:14.248Z,52.81
2023-04-01T14:59:31.523Z,53.01
2023-04-01T15:01:46.380Z,53.26
2023-04-01T15:04:01.912Z,53.31
2023-04-01T15:06:35.868Z,53.63
2023-04-01T15:08:45.734Z,53.35
2023-04-01T15:11:15.767Z,53.59
2023-04-01T15:13:39.807Z,53.75
2023-04-01T15:15:59.953Z,53.86
2023-04-01T15:18:13.321Z,53.79
2023-04-01T15:20:33.640Z,53.82
2023-04-01T15:22:55.070Z,53.71
2023-04-01T15:25:25.664Z,53.91
2023-04-01T15:27:44.663Z,53.57
2023-04-01T15:30:11.914Z,53.70
2023-04-01T15:32:23.152Z,53.48
2023-04-01T15:34:37.772Z,53.23
2023-04-01T15:36:48.947Z,53.28
2023-04-01T15:38:57.532Z,53.53
2023-04-01T15:41:11.058Z,53.54
2023-04-01T15:43:28.115Z,53.46
2023-04-01T15:45:50.338Z,53.13
2023-04-01T15:48:04.530Z,53.27
2023-04-01T15:50:39.938Z,52.95
2023-04-01T15:52:54.646Z,53.20
2023-04-01T15:55:43.004Z,53.13
2023-04-01T16:01:13.801Z,52.95
2023-04-01T16:03:28.508Z,53.01
2023-04-01T16:05:46.967Z,53.02
2023-04-01T16:08:08.237Z,53.02
2023-04-01T16:10:34.885Z,52.88
2023-04-01T16:12:57.111Z,52.71
2023-04-01T16:15:13.974Z,52.68
2023-04-01T16:17:35.309Z,52.54
2023-04-01T16:19:55.151Z,52.79
2023-04-01T16:22:07.954Z,52.76
2023-04-01T16:24:23.870Z,52.98
2023-04-01T16:26:36.983Z,52.83
2023-04-01T16:28:52.882Z,53.03
2023-04-01T16:31:03.596Z,52.82
2023-04-01T16:33:19.220Z,52.92
2023-04-01T16:35:43.589Z,52.96
2023-04-01T16:37:53.608Z,53.14
2023-04-01T16:40:17.332Z,52.99
2023-04-01T16:42:44.426Z,53.14
2023-04-01T16:44:57.762Z,53.23
2023-04-01T16:47:10.292Z,53.16
2023-04-01T16:49:32.981Z,53.09
2023-04-01T16:51:46.050Z,53.00
2023-04-01T16:53:53.568Z,53.13
2023-04-01T16:56:07.519Z,52.68
2023-04-01T16:58:14.320Z,52.86
2023-04-01T17:00:26.602Z,52.65
2023-04-01T17:02:35.530Z,52.58
2023-04-01T17:04:48.120Z,52.54
2023-04-01T17:07:01.957Z,52.52
2023-04-01T17:09:26.427Z,52.56
2023-04-01T17:11:37.664Z,52.47
2023-04-01T17:13:51.226Z,52.67
2023-04-01T17:16:05.662Z,52.45
2023-04-01T17:18:17.308Z,52.52
2023-04-01T17:20:37.943Z,52.31
2023-04-01T17:22:50.582Z,52.20
2023-04-01T17:25:06.752Z,51.99
2023-04-01T17:27:24.749Z,52.18
2023-04-01T17:29:37.043Z,51.91
2023-04-01T17:31:53.625Z,51.77
2023-04-01T17:34:25.094Z,51.83
2023-04-01T17:36:53.849Z,51.66
2023-04-01T17:39:09.648Z,51.53
2023-04-01T17:41:28.604Z,51.68
2023-04-01T17:43:46.371Z,51.69
2023-04-01T17:45:57.266Z,51.38
2023-04-01T17:48:12.229Z,51.60
2023-04-01T17:50:28.447Z,51.60
2023-04-01T17:52:46.194Z,51.18
2023-04-01T17:54:58.276Z,51.31
2023-04-01T17:57:29.001Z,51.24
2023-04-01T17:59:43.888Z,51.29
2023-04-01T18:01:59.602Z,51.18
2023-04-01T18:04:29.945Z,51.27
2023-04-01T18:06:40.702Z,51.35
2023-04-01T18:09:01.653Z,51.15
2023-04-01T18:11:18.260Z,51.34
2023-04-01T18:13:46.500Z,51.00
2023-04-01T18:16:03.202Z,50.87
2023-04-01T18:18:26.073Z,50.93
2023-04-01T18:20:46.038Z,50.93
2023-04-01T18:22:57.962Z,50.92
2023-04-01T18:25:17.320Z,50.79
2023-04-01T18:27:27.375Z,51.00
2023-04-01T18:29:40.597Z,50.77
2023-04-01T18:31:47.954Z,51.10
2023-04-01T18:34:00.899Z,50.87
2023-04-01T18:36:20.863Z,51.06
2023-04-01T18:38:33.581Z,50.93
2023-04-01T18:40:45.741Z,50.85
2023-04-01T18:43:01.760Z,50.69
2023-04-01T18:45:19.003Z,50.78
2023-04-01T18:47:31.557Z,50.58
2023-04-01T18:49:46.307Z,50.94
2023-04-01T18:51:58.570Z,50.66
2023-04-01T18:54:07.048Z,50.78
2023-04-01T18:56:17.258Z,50.76
2023-04-01T18:58:29.008Z,50.88
2023-04-01T19:00:44.331Z,50.82
2023-04-01T19:02:56.891Z,50.64
2023-04-01T19:05:09.223Z,50.52
2023-04-01T19:07:44.230Z,50.92
2023-04-01T19:09:51.601Z,50.81
2023-04-01T19:12:19.797Z,50.58
2023-04-01T19:14:33.386Z,50.90
2023-04-01T19:16:49.922Z,51.13
2023-04-01T19:19:19.073Z,50.98
2023-04-01T19:21:30.365Z,50.76
2023-04-01T19:24:18.670Z,51.00
2023-04-01T19:26:31.053Z,51.19
2023-04-01T19:28:48.588Z,51.13
2023-04-01T19:30:59.648Z,51.14
2023-04-01T19:33:13.828Z,51.11
2023-04-01T19:35:28.596Z,51.09
2023-04-01T19:37:42.808Z,51.33
2023-04-01T19:39:57.885Z,51.55
2023-04-01T19:42:12.930Z,51.61
2023-04-01T19:44:33.415Z,51.63
2023-04-01T19:46:44.365Z,51.81
2023-04-01T19:49:10.328Z,51.78
2023-04-01T19:51:24.161Z,51.72
2023-04-01T19:53:35.288Z,51.80
2023-04-01T19:55:46.712Z,51.71
2023-04-01T19:57:58.318Z,51.90
2023-04-01T20:00:11.629Z,52.13
2023-04-01T20:02:49.574Z,52.14
2023-04-01T20:04:58.084Z,51.95
2023-04-01T20:07:11.246Z,52.17
2023-04-01T20:09:38.636Z,52.52
2023-04-01T20:11:56.583Z,52.47
2023-04-01T20:14:13.457Z,52.18
2023-04-01T20:16:21.144Z,52.25
2023-04-01T20:18:30.515Z,52.55
2023-04-01T20:20:36.750Z,52.27
2023-04-01T20:23:01.034Z,52.62
2023-04-01T20:25:15.758Z,52.70
2023-04-01T20:27:25.748Z,52.44
2023-04-01T20:29:44.888Z,52.41
2023-04-01T20:32:05.952Z,52.67
2023-04-01T20:34:48.786Z,52.50
2023-04-01T20:37:04.759Z,52.84
2023-04-01T20:39:38.935Z,52.62
2023-04-01T20:41:53.483Z,52.58
2023-04-01T20:44:12.328Z,52.69
2023-04-01T20:46:24.416Z,53.01
2023-04-01T20:49:03.533Z,52.95
2023-04-01T20:51:11.289Z,52.96
2023-04-01T20:53:21.917Z,53.11
2023-04-01T20:56:02.830Z,52.97
2023-04-01T20:58:22.044Z,53.12
2023-04-01T21:00:37.421Z,52.98
2023-04-01T21:03:03.995Z,53.12
2023-04-01T21:05:30.737Z,53.11
2023-04-01T21:07:43.551Z,53.08
2023-04-01T21:10:07.789Z,53.28
2023-04-01T21:12:25.752Z,53.25
2023-04-01T21:14:48.903Z,53.22
2023-04-01T21:17:04.237Z,53.16
2023-04-01T21:19:27.225Z,52.96
2023-04-01T21:22:11.316Z,52.91
2023-04-01T21:24:51.069Z,52.99
2023-04-01T21:27:04.975Z,52.90
2023-04-01T21:29:27.566Z,52.66
2023-04-01T21:31:48.861Z,52.88
2023-04-01T21:34:07.994Z,53.05
2023-04-01T21:36:29.540Z,52.66
2023-04-01T21:39:02.470Z,52.66
2023-04-01T21:41:19.791Z,52.93
2023-04-01T21:43:54.522Z,53.03
2023-04-01T21:46:29.119Z,52.73
2023-04-01T21:48:51.650Z,52.79
2023-04-01T21:51:28.123Z,52.89
2023-04-01T21:54:19.273Z,52.84
2023-04-01T21:56:54.011Z,52.94
2023-04-01T21:59:28.860Z,52.78
2023-04-01T22:01:59.107Z,52.90
2023-04-01T22:04:22.534Z,53.11
2023-04-01T22:06:33.812Z,53.20
2023-04-01T22:09:04.367Z,53.28
2023-04-01T22:11:18.172Z,53.30
2023-04-01T22:13:30.494Z,53.25
2023-04-01T22:15:54.185Z,53.19
2023-04-01T22:18:03.211Z,53.32
2023-04-01T22:20:21.324Z,53.08
2023-04-01T22:22:32.102Z,53.22
2023-04-01T22:24:48.350Z,52.98
2023-04-01T22:27:02.966Z,52.91
2023-04-01T22:29:14.893Z,53.20
2023-04-01T22:31:26.714Z,53.24
2023-04-01T22:33:38.970Z,53.09
2023-04-01T22:35:53.274Z,53.00
2023-04-01T22:38:09.271Z,53.20
2023-04-01T22:40:26.553Z,53.05
2023-04-01T22:42:45.793Z,52.94
2023-04-01T22:45:01.475Z,52.90
2023-04-01T22:47:16.469Z,52.91
2023-04-01T22:49:29.145Z,52.79
2023-04-01T22:51:47.106Z,53.03
2023-04-01T22:54:09.468Z,53.05
2023-04-01T22:56:19.817Z,53.03
2023-04-01T22:58:34.643Z,52.83
2023-04-01T23:00:43.658Z,52.80
2023-04-01T23:02:54.947Z,52.95
2023-04-01T23:05:03.141Z,52.83
2023-04-01T23:07:28.307Z,52.86
2023-04-01T23:09:35.266Z,53.14
2023-04-01T23:11:47.507Z,52.82
2023-04-01T23:13:58.230Z,52.85
2023-04-01T23:16:03.829Z,52.87
2023-04-01T23:18:24.775Z,52.73
2023-04-01T23:20:43.780Z,52.95
2023-04-01T23:23:00.664Z,53.15
2023-04-01T23:25:21.081Z,53.00
2023-04-01T23:27:32.255Z,52.97
2023-04-01T23:29:43.978Z,52.83
2023-04-01T23:31:50.099Z,52.85
2023-04-01T23:33:58.085Z,52.77
2023-04-01T23:36:08.735Z,52.72
2023-04-01T23:38:13.697Z,52.86
2023-04-01T23:40:18.962Z,52.87
2023-04-01T23:42:27.455Z,52.85
2023-04-01T23:44:33.527Z,52.75
2023-04-01T23:46:43.544Z,52.75
2023-04-01T23:48:50.395Z,52.93
2023-04-01T23:50:55.672Z,53.00
2023-04-01T23:53:03.735Z,53.16
2023-04-01T23:55:18.153Z,53.11
2023-04-01T23:57:26.781Z,52.99
2023-04-01T23:59:34.056Z,53.13
